Hauptseite
METAR-TAF:

METAR-TAF

Flughäfen :

Flughafen Córdoba

Córdoba, Spanien

Breite: 37-51N, Länge: 004-51W, Höhe: 90 m

Beobachtung

Neuester Wetterbericht von vor 15 Minuten, um 21:30 UTC
Wind 3 kt aus West
Temperatur 9°C
Luftfeuchtigkeit 87%
Luftdruck 1023 hPa
Sichtweite 10 km oder mehr
keine Wolken unter 1500 m und keine Kumulonimbus oder Gewitterwolken

METAR: LEBA 202130Z AUTO 26003KT CAVOK 09/07 Q1023

Zeit: 22:45 (21:45 UTC)

Prognose

Neuester Wetterbericht von vor 7 Stunden und 45 Minuten, um 14:00 UTC
Gültige Prognose vom 20 um 15 UTC bis 20 um 24 UTC
Wind 3 kt aus unterschiedlichen Richtungen
Sichtweite 10 km oder mehr
keine Wolken unter 1500 m und keine Kumulonimbus oder Gewitterwolken

TAF: LEBA 201400Z 2015/2024 VRB03KT CAVOK

Wetterbeobachtungen und Prognosen von mehr als 4000 Flughäfen (METAR und TAF Bericht).

Die verfügbaren Stationen werden durch gelbe und rote Markierungen auf der Karte dargestellt.

Führen Sie die Maus auf sie, um den Namen der Station zu sehen.

Darauf klicken, um die Beobachtung von Wetterbeobachtungen und Prognosen zu sehen.

Um die Karte zu ändern : klicken Sie auf den grünen Tasten mit einem schwarzen Kreuz Zum Vergrößern, auf den grünen Button mit einem Gedankenstrich zu verkleinern, oder auf die grünen Pfeile für benachbarte Karten.


METAR-TAF: